sensor_id;sensor_type;location;lat;lon;timestamp;P1;durP1;ratioP1;P2;durP2;ratioP2
14900;SDS011;7542;49.078;9.194;2022-10-12T00:00:24;6.83;;;5.20;;
14900;SDS011;7542;49.078;9.194;2022-10-12T00:01:26;10.33;;;4.83;;
14900;SDS011;7542;49.078;9.194;2022-10-12T00:02:28;5.60;;;4.97;;
14900;SDS011;7542;49.078;9.194;2022-10-12T00:03:29;6.20;;;4.80;;
14900;SDS011;7542;49.078;9.194;2022-10-12T00:04:31;6.07;;;4.63;;
14900;SDS011;7542;49.078;9.194;2022-10-12T00:05:33;8.90;;;5.00;;
14900;SDS011;7542;49.078;9.194;2022-10-12T00:06:35;11.23;;;5.23;;
14900;SDS011;7542;49.078;9.194;2022-10-12T00:07:37;7.20;;;5.13;;
14900;SDS011;7542;49.078;9.194;2022-10-12T00:08:39;7.90;;;5.03;;
14900;SDS011;7542;49.078;9.194;2022-10-12T00:09:43;7.07;;;5.27;;
14900;SDS011;7542;49.078;9.194;2022-10-12T00:10:45;10.37;;;5.00;;
14900;SDS011;7542;49.078;9.194;2022-10-12T00:11:47;7.37;;;5.07;;
14900;SDS011;7542;49.078;9.194;2022-10-12T00:12:48;7.70;;;4.83;;
14900;SDS011;7542;49.078;9.194;2022-10-12T00:13:51;5.47;;;4.97;;
14900;SDS011;7542;49.078;9.194;2022-10-12T00:14:53;5.67;;;5.07;;
14900;SDS011;7542;49.078;9.194;2022-10-12T00:15:55;5.30;;;4.47;;
14900;SDS011;7542;49.078;9.194;2022-10-12T00:17:01;7.63;;;5.00;;
14900;SDS011;7542;49.078;9.194;2022-10-12T00:18:04;8.60;;;4.80;;
14900;SDS011;7542;49.078;9.194;2022-10-12T00:19:11;5.53;;;4.87;;
14900;SDS011;7542;49.078;9.194;2022-10-12T00:20:14;6.97;;;4.90;;
14900;SDS011;7542;49.078;9.194;2022-10-12T00:21:16;5.57;;;5.07;;
14900;SDS011;7542;49.078;9.194;2022-10-12T00:22:19;6.90;;;5.03;;
14900;SDS011;7542;49.078;9.194;2022-10-12T00:23:21;7.37;;;4.57;;
14900;SDS011;7542;49.078;9.194;2022-10-12T00:24:22;5.30;;;4.80;;
14900;SDS011;7542;49.078;9.194;2022-10-12T00:25:25;9.07;;;5.20;;
14900;SDS011;7542;49.078;9.194;2022-10-12T00:26:27;7.17;;;4.80;;
14900;SDS011;7542;49.078;9.194;2022-10-12T00:27:30;5.90;;;4.73;;
14900;SDS011;7542;49.078;9.194;2022-10-12T00:28:32;5.60;;;5.03;;
14900;SDS011;7542;49.078;9.194;2022-10-12T00:29:35;9.37;;;4.70;;
14900;SDS011;7542;49.078;9.194;2022-10-12T00:30:38;6.43;;;5.03;;
14900;SDS011;7542;49.078;9.194;2022-10-12T00:31:41;10.57;;;5.20;;
14900;SDS011;7542;49.078;9.194;2022-10-12T00:32:43;7.57;;;5.10;;
14900;SDS011;7542;49.078;9.194;2022-10-12T00:33:45;6.03;;;5.10;;
14900;SDS011;7542;49.078;9.194;2022-10-12T00:34:48;7.60;;;5.03;;
14900;SDS011;7542;49.078;9.194;2022-10-12T00:35:49;9.83;;;5.07;;
14900;SDS011;7542;49.078;9.194;2022-10-12T00:36:54;6.60;;;5.03;;
14900;SDS011;7542;49.078;9.194;2022-10-12T00:37:56;7.07;;;5.30;;
14900;SDS011;7542;49.078;9.194;2022-10-12T00:38:58;8.70;;;5.20;;
14900;SDS011;7542;49.078;9.194;2022-10-12T00:40:00;6.97;;;5.00;;
14900;SDS011;7542;49.078;9.194;2022-10-12T00:41:02;6.03;;;5.13;;
14900;SDS011;7542;49.078;9.194;2022-10-12T00:42:04;5.00;;;4.20;;
14900;SDS011;7542;49.078;9.194;2022-10-12T00:43:25;8.03;;;4.50;;
14900;SDS011;7542;49.078;9.194;2022-10-12T00:45:46;4.67;;;4.17;;
14900;SDS011;7542;49.078;9.194;2022-10-12T00:46:48;7.57;;;4.60;;
14900;SDS011;7542;49.078;9.194;2022-10-12T00:47:54;7.63;;;4.83;;
14900;SDS011;7542;49.078;9.194;2022-10-12T00:49:11;7.07;;;4.43;;
14900;SDS011;7542;49.078;9.194;2022-10-12T00:50:26;5.97;;;4.60;;
14900;SDS011;7542;49.078;9.194;2022-10-12T00:51:33;5.83;;;4.77;;
14900;SDS011;7542;49.078;9.194;2022-10-12T00:54:22;7.17;;;5.00;;
14900;SDS011;7542;49.078;9.194;2022-10-12T00:55:49;4.90;;;4.50;;
14900;SDS011;7542;49.078;9.194;2022-10-12T00:56:59;6.07;;;4.57;;
14900;SDS011;7542;49.078;9.194;2022-10-12T00:58:06;9.00;;;5.10;;
14900;SDS011;7542;49.078;9.194;2022-10-12T00:59:33;9.17;;;5.13;;
14900;SDS011;7542;49.078;9.194;2022-10-12T01:00:44;8.90;;;4.80;;
14900;SDS011;7542;49.078;9.194;2022-10-12T01:01:47;7.37;;;4.87;;
14900;SDS011;7542;49.078;9.194;2022-10-12T01:02:50;9.00;;;5.13;;
14900;SDS011;7542;49.078;9.194;2022-10-12T01:03:54;6.63;;;4.93;;
14900;SDS011;7542;49.078;9.194;2022-10-12T01:04:56;8.30;;;4.70;;
14900;SDS011;7542;49.078;9.194;2022-10-12T01:05:59;9.03;;;4.77;;
14900;SDS011;7542;49.078;9.194;2022-10-12T01:07:00;9.57;;;4.57;;
14900;SDS011;7542;49.078;9.194;2022-10-12T01:08:02;7.93;;;5.00;;
14900;SDS011;7542;49.078;9.194;2022-10-12T01:09:04;8.40;;;4.77;;
14900;SDS011;7542;49.078;9.194;2022-10-12T01:10:06;9.43;;;5.00;;
14900;SDS011;7542;49.078;9.194;2022-10-12T01:11:08;5.73;;;4.63;;
14900;SDS011;7542;49.078;9.194;2022-10-12T01:12:10;4.87;;;4.40;;
14900;SDS011;7542;49.078;9.194;2022-10-12T01:13:12;5.87;;;4.63;;
14900;SDS011;7542;49.078;9.194;2022-10-12T01:14:14;7.30;;;5.03;;
14900;SDS011;7542;49.078;9.194;2022-10-12T01:15:17;6.33;;;5.17;;
14900;SDS011;7542;49.078;9.194;2022-10-12T01:21:15;8.70;;;5.20;;
14900;SDS011;7542;49.078;9.194;2022-10-12T01:22:21;10.43;;;4.90;;
14900;SDS011;7542;49.078;9.194;2022-10-12T01:27:48;4.93;;;4.50;;
14900;SDS011;7542;49.078;9.194;2022-10-12T01:30:21;6.70;;;4.60;;
14900;SDS011;7542;49.078;9.194;2022-10-12T01:31:30;8.37;;;5.20;;
14900;SDS011;7542;49.078;9.194;2022-10-12T01:34:08;6.17;;;4.50;;
14900;SDS011;7542;49.078;9.194;2022-10-12T01:36:51;5.83;;;4.20;;
14900;SDS011;7542;49.078;9.194;2022-10-12T01:39:38;6.03;;;4.50;;
14900;SDS011;7542;49.078;9.194;2022-10-12T01:42:08;9.87;;;4.40;;
14900;SDS011;7542;49.078;9.194;2022-10-12T01:43:19;7.17;;;4.67;;
14900;SDS011;7542;49.078;9.194;2022-10-12T01:44:23;6.17;;;4.33;;
14900;SDS011;7542;49.078;9.194;2022-10-12T01:45:27;6.03;;;4.80;;
14900;SDS011;7542;49.078;9.194;2022-10-12T01:47:30;9.93;;;4.73;;
14900;SDS011;7542;49.078;9.194;2022-10-12T01:48:34;5.27;;;4.80;;
14900;SDS011;7542;49.078;9.194;2022-10-12T01:49:36;4.93;;;4.47;;
14900;SDS011;7542;49.078;9.194;2022-10-12T01:50:47;8.07;;;5.20;;
14900;SDS011;7542;49.078;9.194;2022-10-12T01:53:19;9.10;;;4.53;;
14900;SDS011;7542;49.078;9.194;2022-10-12T01:54:48;8.70;;;4.50;;
14900;SDS011;7542;49.078;9.194;2022-10-12T02:00:58;8.17;;;4.70;;
14900;SDS011;7542;49.078;9.194;2022-10-12T02:05:37;7.90;;;4.43;;
14900;SDS011;7542;49.078;9.194;2022-10-12T02:06:52;4.40;;;4.03;;
14900;SDS011;7542;49.078;9.194;2022-10-12T02:09:28;4.27;;;3.97;;
14900;SDS011;7542;49.078;9.194;2022-10-12T02:10:38;7.17;;;4.80;;
14900;SDS011;7542;49.078;9.194;2022-10-12T02:11:54;10.23;;;5.03;;
14900;SDS011;7542;49.078;9.194;2022-10-12T02:13:05;7.10;;;4.50;;
14900;SDS011;7542;49.078;9.194;2022-10-12T02:14:13;5.70;;;4.73;;
14900;SDS011;7542;49.078;9.194;2022-10-12T02:15:19;7.20;;;4.87;;
14900;SDS011;7542;49.078;9.194;2022-10-12T02:16:26;4.63;;;4.23;;
14900;SDS011;7542;49.078;9.194;2022-10-12T02:17:36;4.90;;;4.37;;
14900;SDS011;7542;49.078;9.194;2022-10-12T02:18:44;9.80;;;4.50;;
14900;SDS011;7542;49.078;9.194;2022-10-12T02:19:56;5.73;;;4.27;;
14900;SDS011;7542;49.078;9.194;2022-10-12T02:21:00;10.80;;;5.17;;
14900;SDS011;7542;49.078;9.194;2022-10-12T02:22:04;7.60;;;4.70;;
14900;SDS011;7542;49.078;9.194;2022-10-12T02:23:09;6.63;;;4.87;;
14900;SDS011;7542;49.078;9.194;2022-10-12T02:24:12;7.90;;;4.87;;
14900;SDS011;7542;49.078;9.194;2022-10-12T02:25:18;7.67;;;4.30;;
14900;SDS011;7542;49.078;9.194;2022-10-12T02:26:23;6.53;;;4.53;;
14900;SDS011;7542;49.078;9.194;2022-10-12T02:27:26;4.77;;;4.27;;
14900;SDS011;7542;49.078;9.194;2022-10-12T02:28:29;5.13;;;4.40;;
14900;SDS011;7542;49.078;9.194;2022-10-12T02:29:37;6.27;;;4.73;;
14900;SDS011;7542;49.078;9.194;2022-10-12T02:30:51;6.53;;;4.83;;
14900;SDS011;7542;49.078;9.194;2022-10-12T02:32:07;7.57;;;4.70;;
14900;SDS011;7542;49.078;9.194;2022-10-12T02:33:41;4.83;;;4.20;;
14900;SDS011;7542;49.078;9.194;2022-10-12T02:35:08;7.07;;;4.53;;
14900;SDS011;7542;49.078;9.194;2022-10-12T02:36:18;8.33;;;4.77;;
14900;SDS011;7542;49.078;9.194;2022-10-12T02:37:47;8.87;;;4.50;;
14900;SDS011;7542;49.078;9.194;2022-10-12T02:39:03;6.13;;;4.43;;
14900;SDS011;7542;49.078;9.194;2022-10-12T02:41:37;4.53;;;4.23;;
14900;SDS011;7542;49.078;9.194;2022-10-12T02:42:50;5.87;;;4.67;;
14900;SDS011;7542;49.078;9.194;2022-10-12T02:44:19;5.07;;;4.17;;
14900;SDS011;7542;49.078;9.194;2022-10-12T02:45:28;7.07;;;4.17;;
14900;SDS011;7542;49.078;9.194;2022-10-12T02:46:33;6.77;;;4.57;;
14900;SDS011;7542;49.078;9.194;2022-10-12T02:47:36;6.03;;;4.50;;
14900;SDS011;7542;49.078;9.194;2022-10-12T02:48:40;7.00;;;4.30;;
14900;SDS011;7542;49.078;9.194;2022-10-12T02:49:46;8.13;;;4.27;;
14900;SDS011;7542;49.078;9.194;2022-10-12T02:50:53;5.63;;;4.03;;
14900;SDS011;7542;49.078;9.194;2022-10-12T02:51:58;5.07;;;3.97;;
14900;SDS011;7542;49.078;9.194;2022-10-12T02:53:02;5.13;;;4.57;;
14900;SDS011;7542;49.078;9.194;2022-10-12T02:54:05;5.13;;;3.97;;
14900;SDS011;7542;49.078;9.194;2022-10-12T02:55:07;6.90;;;4.47;;
14900;SDS011;7542;49.078;9.194;2022-10-12T02:56:10;7.90;;;4.30;;
14900;SDS011;7542;49.078;9.194;2022-10-12T02:57:14;5.67;;;4.23;;
14900;SDS011;7542;49.078;9.194;2022-10-12T02:58:17;4.43;;;3.90;;
14900;SDS011;7542;49.078;9.194;2022-10-12T02:59:19;6.63;;;4.40;;
14900;SDS011;7542;49.078;9.194;2022-10-12T03:00:21;8.27;;;4.40;;
14900;SDS011;7542;49.078;9.194;2022-10-12T03:01:23;5.73;;;4.20;;
14900;SDS011;7542;49.078;9.194;2022-10-12T03:02:25;6.53;;;4.27;;
14900;SDS011;7542;49.078;9.194;2022-10-12T03:03:27;4.60;;;3.90;;
14900;SDS011;7542;49.078;9.194;2022-10-12T03:04:29;7.43;;;4.37;;
14900;SDS011;7542;49.078;9.194;2022-10-12T03:05:30;4.80;;;4.30;;
14900;SDS011;7542;49.078;9.194;2022-10-12T03:06:32;12.80;;;4.70;;
14900;SDS011;7542;49.078;9.194;2022-10-12T03:07:34;6.23;;;4.07;;
14900;SDS011;7542;49.078;9.194;2022-10-12T03:08:36;5.67;;;4.60;;
14900;SDS011;7542;49.078;9.194;2022-10-12T03:09:38;7.00;;;4.27;;
14900;SDS011;7542;49.078;9.194;2022-10-12T03:10:39;7.57;;;4.50;;
14900;SDS011;7542;49.078;9.194;2022-10-12T03:11:41;5.33;;;4.20;;
14900;SDS011;7542;49.078;9.194;2022-10-12T03:12:46;5.37;;;4.50;;
14900;SDS011;7542;49.078;9.194;2022-10-12T03:13:51;6.17;;;4.30;;
14900;SDS011;7542;49.078;9.194;2022-10-12T03:14:54;7.03;;;4.40;;
14900;SDS011;7542;49.078;9.194;2022-10-12T03:16:00;5.73;;;4.33;;
14900;SDS011;7542;49.078;9.194;2022-10-12T03:17:03;5.53;;;4.30;;
14900;SDS011;7542;49.078;9.194;2022-10-12T03:18:05;4.90;;;4.40;;
14900;SDS011;7542;49.078;9.194;2022-10-12T03:19:06;5.70;;;4.73;;
14900;SDS011;7542;49.078;9.194;2022-10-12T03:20:08;5.10;;;4.23;;
14900;SDS011;7542;49.078;9.194;2022-10-12T03:21:11;6.10;;;3.90;;
14900;SDS011;7542;49.078;9.194;2022-10-12T03:22:13;5.80;;;4.57;;
14900;SDS011;7542;49.078;9.194;2022-10-12T03:23:14;4.50;;;4.10;;
14900;SDS011;7542;49.078;9.194;2022-10-12T03:24:16;5.23;;;4.40;;
14900;SDS011;7542;49.078;9.194;2022-10-12T03:25:18;8.00;;;4.57;;
14900;SDS011;7542;49.078;9.194;2022-10-12T03:26:20;10.13;;;4.60;;
14900;SDS011;7542;49.078;9.194;2022-10-12T03:27:23;5.90;;;4.57;;
14900;SDS011;7542;49.078;9.194;2022-10-12T03:28:25;5.10;;;4.57;;
14900;SDS011;7542;49.078;9.194;2022-10-12T03:29:26;5.83;;;4.27;;
14900;SDS011;7542;49.078;9.194;2022-10-12T03:30:28;5.27;;;4.77;;
14900;SDS011;7542;49.078;9.194;2022-10-12T03:31:30;5.50;;;4.47;;
14900;SDS011;7542;49.078;9.194;2022-10-12T03:32:32;6.60;;;4.57;;
14900;SDS011;7542;49.078;9.194;2022-10-12T03:33:34;7.23;;;4.33;;
14900;SDS011;7542;49.078;9.194;2022-10-12T03:34:35;6.50;;;4.70;;
14900;SDS011;7542;49.078;9.194;2022-10-12T03:35:37;7.37;;;5.00;;
14900;SDS011;7542;49.078;9.194;2022-10-12T03:36:39;5.10;;;4.43;;
14900;SDS011;7542;49.078;9.194;2022-10-12T03:37:41;5.63;;;4.77;;
14900;SDS011;7542;49.078;9.194;2022-10-12T03:38:43;7.50;;;5.30;;
14900;SDS011;7542;49.078;9.194;2022-10-12T03:39:45;8.70;;;5.40;;
14900;SDS011;7542;49.078;9.194;2022-10-12T03:40:47;8.63;;;5.00;;
14900;SDS011;7542;49.078;9.194;2022-10-12T03:41:48;8.33;;;4.53;;
14900;SDS011;7542;49.078;9.194;2022-10-12T03:42:50;5.13;;;4.67;;
14900;SDS011;7542;49.078;9.194;2022-10-12T03:43:52;6.23;;;4.73;;
14900;SDS011;7542;49.078;9.194;2022-10-12T03:44:53;7.23;;;4.50;;
14900;SDS011;7542;49.078;9.194;2022-10-12T03:45:55;5.70;;;4.70;;
14900;SDS011;7542;49.078;9.194;2022-10-12T03:46:57;4.80;;;4.30;;
14900;SDS011;7542;49.078;9.194;2022-10-12T03:47:59;5.33;;;4.37;;
14900;SDS011;7542;49.078;9.194;2022-10-12T03:49:05;6.47;;;4.63;;
14900;SDS011;7542;49.078;9.194;2022-10-12T03:50:07;5.00;;;4.50;;
14900;SDS011;7542;49.078;9.194;2022-10-12T03:51:09;5.97;;;4.00;;
14900;SDS011;7542;49.078;9.194;2022-10-12T03:52:11;7.17;;;4.47;;
14900;SDS011;7542;49.078;9.194;2022-10-12T03:53:13;5.47;;;4.40;;
14900;SDS011;7542;49.078;9.194;2022-10-12T03:54:14;6.27;;;4.27;;
14900;SDS011;7542;49.078;9.194;2022-10-12T03:55:16;5.73;;;4.23;;
14900;SDS011;7542;49.078;9.194;2022-10-12T03:56:18;4.90;;;4.20;;
14900;SDS011;7542;49.078;9.194;2022-10-12T03:57:20;4.70;;;4.30;;
14900;SDS011;7542;49.078;9.194;2022-10-12T03:58:21;6.93;;;4.20;;
14900;SDS011;7542;49.078;9.194;2022-10-12T03:59:23;11.23;;;4.67;;
14900;SDS011;7542;49.078;9.194;2022-10-12T04:00:25;6.03;;;4.30;;
14900;SDS011;7542;49.078;9.194;2022-10-12T04:01:28;5.50;;;4.50;;
14900;SDS011;7542;49.078;9.194;2022-10-12T04:02:30;4.93;;;4.47;;
14900;SDS011;7542;49.078;9.194;2022-10-12T04:03:31;8.33;;;4.60;;
14900;SDS011;7542;49.078;9.194;2022-10-12T04:04:33;6.23;;;4.27;;
14900;SDS011;7542;49.078;9.194;2022-10-12T04:05:35;5.43;;;4.23;;
14900;SDS011;7542;49.078;9.194;2022-10-12T04:06:37;5.73;;;4.50;;
14900;SDS011;7542;49.078;9.194;2022-10-12T04:07:39;7.60;;;4.63;;
14900;SDS011;7542;49.078;9.194;2022-10-12T04:08:41;8.83;;;4.83;;
14900;SDS011;7542;49.078;9.194;2022-10-12T04:09:49;7.27;;;4.47;;
14900;SDS011;7542;49.078;9.194;2022-10-12T04:10:51;6.10;;;4.70;;
14900;SDS011;7542;49.078;9.194;2022-10-12T04:11:53;8.93;;;4.60;;
14900;SDS011;7542;49.078;9.194;2022-10-12T04:12:55;4.83;;;4.43;;
14900;SDS011;7542;49.078;9.194;2022-10-12T04:13:57;6.70;;;4.60;;
14900;SDS011;7542;49.078;9.194;2022-10-12T04:14:59;8.07;;;4.60;;
14900;SDS011;7542;49.078;9.194;2022-10-12T04:16:04;5.57;;;4.60;;
14900;SDS011;7542;49.078;9.194;2022-10-12T04:17:07;4.33;;;4.00;;
14900;SDS011;7542;49.078;9.194;2022-10-12T04:18:09;7.83;;;4.53;;
14900;SDS011;7542;49.078;9.194;2022-10-12T04:19:11;4.80;;;4.37;;
14900;SDS011;7542;49.078;9.194;2022-10-12T04:20:14;4.60;;;4.17;;
14900;SDS011;7542;49.078;9.194;2022-10-12T04:21:15;7.43;;;4.60;;
14900;SDS011;7542;49.078;9.194;2022-10-12T04:22:25;6.97;;;4.07;;
14900;SDS011;7542;49.078;9.194;2022-10-12T04:23:27;6.80;;;4.40;;
14900;SDS011;7542;49.078;9.194;2022-10-12T04:24:29;6.30;;;4.70;;
14900;SDS011;7542;49.078;9.194;2022-10-12T04:25:30;7.10;;;4.67;;
14900;SDS011;7542;49.078;9.194;2022-10-12T04:26:32;5.03;;;4.47;;
14900;SDS011;7542;49.078;9.194;2022-10-12T04:27:34;6.57;;;4.67;;
14900;SDS011;7542;49.078;9.194;2022-10-12T04:28:36;4.80;;;4.10;;
14900;SDS011;7542;49.078;9.194;2022-10-12T04:29:38;8.87;;;4.07;;
14900;SDS011;7542;49.078;9.194;2022-10-12T04:30:40;7.50;;;4.73;;
14900;SDS011;7542;49.078;9.194;2022-10-12T04:31:42;5.17;;;4.67;;
14900;SDS011;7542;49.078;9.194;2022-10-12T04:32:43;6.37;;;4.67;;
14900;SDS011;7542;49.078;9.194;2022-10-12T04:33:45;7.03;;;4.57;;
14900;SDS011;7542;49.078;9.194;2022-10-12T04:34:47;4.80;;;4.30;;
14900;SDS011;7542;49.078;9.194;2022-10-12T04:35:49;6.07;;;4.73;;
14900;SDS011;7542;49.078;9.194;2022-10-12T04:36:50;5.07;;;4.60;;
14900;SDS011;7542;49.078;9.194;2022-10-12T04:37:52;5.00;;;4.60;;
14900;SDS011;7542;49.078;9.194;2022-10-12T04:38:54;8.70;;;4.77;;
14900;SDS011;7542;49.078;9.194;2022-10-12T04:40:01;7.77;;;4.50;;
14900;SDS011;7542;49.078;9.194;2022-10-12T04:41:03;6.87;;;4.90;;
14900;SDS011;7542;49.078;9.194;2022-10-12T04:42:05;6.00;;;4.83;;
14900;SDS011;7542;49.078;9.194;2022-10-12T04:43:07;5.60;;;4.97;;
14900;SDS011;7542;49.078;9.194;2022-10-12T04:44:09;7.73;;;4.53;;
14900;SDS011;7542;49.078;9.194;2022-10-12T04:45:11;7.53;;;4.50;;
14900;SDS011;7542;49.078;9.194;2022-10-12T04:46:12;5.17;;;4.67;;
14900;SDS011;7542;49.078;9.194;2022-10-12T04:47:14;5.40;;;4.90;;
14900;SDS011;7542;49.078;9.194;2022-10-12T04:48:16;6.00;;;4.60;;
14900;SDS011;7542;49.078;9.194;2022-10-12T04:49:18;7.20;;;4.90;;
14900;SDS011;7542;49.078;9.194;2022-10-12T04:50:20;6.00;;;4.50;;
14900;SDS011;7542;49.078;9.194;2022-10-12T04:51:29;7.63;;;4.47;;
14900;SDS011;7542;49.078;9.194;2022-10-12T04:52:31;4.97;;;4.47;;
14900;SDS011;7542;49.078;9.194;2022-10-12T04:53:33;10.43;;;5.07;;
14900;SDS011;7542;49.078;9.194;2022-10-12T04:54:35;10.50;;;4.90;;
14900;SDS011;7542;49.078;9.194;2022-10-12T04:55:37;8.23;;;5.03;;
14900;SDS011;7542;49.078;9.194;2022-10-12T04:56:38;4.93;;;4.43;;
14900;SDS011;7542;49.078;9.194;2022-10-12T04:57:46;5.83;;;4.63;;
14900;SDS011;7542;49.078;9.194;2022-10-12T04:58:50;5.13;;;4.63;;
14900;SDS011;7542;49.078;9.194;2022-10-12T04:59:51;8.10;;;5.17;;
14900;SDS011;7542;49.078;9.194;2022-10-12T05:00:53;6.47;;;5.10;;
14900;SDS011;7542;49.078;9.194;2022-10-12T05:01:55;8.73;;;4.80;;
14900;SDS011;7542;49.078;9.194;2022-10-12T05:02:57;9.77;;;5.23;;
14900;SDS011;7542;49.078;9.194;2022-10-12T05:03:59;6.67;;;5.30;;
14900;SDS011;7542;49.078;9.194;2022-10-12T05:05:00;5.03;;;4.63;;
14900;SDS011;7542;49.078;9.194;2022-10-12T05:06:02;7.80;;;5.27;;
14900;SDS011;7542;49.078;9.194;2022-10-12T05:07:04;5.43;;;4.93;;
14900;SDS011;7542;49.078;9.194;2022-10-12T05:08:06;8.07;;;5.30;;
14900;SDS011;7542;49.078;9.194;2022-10-12T05:09:07;5.50;;;4.90;;
14900;SDS011;7542;49.078;9.194;2022-10-12T05:10:16;6.10;;;4.67;;
14900;SDS011;7542;49.078;9.194;2022-10-12T05:11:18;5.77;;;4.67;;
14900;SDS011;7542;49.078;9.194;2022-10-12T05:12:20;6.70;;;4.90;;
14900;SDS011;7542;49.078;9.194;2022-10-12T05:13:22;5.00;;;4.50;;
14900;SDS011;7542;49.078;9.194;2022-10-12T05:14:24;7.10;;;4.87;;
14900;SDS011;7542;49.078;9.194;2022-10-12T05:15:25;7.70;;;5.00;;
14900;SDS011;7542;49.078;9.194;2022-10-12T05:16:27;6.17;;;5.17;;
14900;SDS011;7542;49.078;9.194;2022-10-12T05:17:29;8.57;;;5.40;;
14900;SDS011;7542;49.078;9.194;2022-10-12T05:18:31;8.10;;;5.20;;
14900;SDS011;7542;49.078;9.194;2022-10-12T05:19:32;8.07;;;5.27;;
14900;SDS011;7542;49.078;9.194;2022-10-12T05:20:34;6.73;;;5.40;;
14900;SDS011;7542;49.078;9.194;2022-10-12T05:21:36;9.63;;;5.50;;
14900;SDS011;7542;49.078;9.194;2022-10-12T05:22:40;13.70;;;5.60;;
14900;SDS011;7542;49.078;9.194;2022-10-12T05:23:41;5.57;;;5.07;;
14900;SDS011;7542;49.078;9.194;2022-10-12T05:24:43;7.07;;;5.60;;
14900;SDS011;7542;49.078;9.194;2022-10-12T05:25:53;8.30;;;5.43;;
14900;SDS011;7542;49.078;9.194;2022-10-12T05:26:56;5.87;;;5.33;;
14900;SDS011;7542;49.078;9.194;2022-10-12T05:27:58;8.57;;;4.90;;
14900;SDS011;7542;49.078;9.194;2022-10-12T05:28:59;8.27;;;6.00;;
14900;SDS011;7542;49.078;9.194;2022-10-12T05:30:01;6.00;;;5.43;;
14900;SDS011;7542;49.078;9.194;2022-10-12T05:31:05;9.47;;;5.53;;
14900;SDS011;7542;49.078;9.194;2022-10-12T05:32:06;5.97;;;5.27;;
14900;SDS011;7542;49.078;9.194;2022-10-12T05:33:08;5.70;;;5.20;;
14900;SDS011;7542;49.078;9.194;2022-10-12T05:34:10;5.97;;;5.27;;
14900;SDS011;7542;49.078;9.194;2022-10-12T05:35:11;6.90;;;5.43;;
14900;SDS011;7542;49.078;9.194;2022-10-12T05:36:13;11.80;;;5.40;;
14900;SDS011;7542;49.078;9.194;2022-10-12T05:37:15;7.70;;;4.90;;
14900;SDS011;7542;49.078;9.194;2022-10-12T05:38:17;6.57;;;5.40;;
14900;SDS011;7542;49.078;9.194;2022-10-12T05:39:19;9.00;;;5.80;;
14900;SDS011;7542;49.078;9.194;2022-10-12T05:40:21;8.93;;;5.20;;
14900;SDS011;7542;49.078;9.194;2022-10-12T05:41:22;6.43;;;5.40;;
14900;SDS011;7542;49.078;9.194;2022-10-12T05:42:24;8.13;;;5.50;;
14900;SDS011;7542;49.078;9.194;2022-10-12T05:43:26;7.43;;;5.00;;
14900;SDS011;7542;49.078;9.194;2022-10-12T05:44:28;5.53;;;5.07;;
14900;SDS011;7542;49.078;9.194;2022-10-12T05:45:30;7.63;;;5.13;;
14900;SDS011;7542;49.078;9.194;2022-10-12T05:46:32;6.00;;;5.30;;
14900;SDS011;7542;49.078;9.194;2022-10-12T05:47:34;9.33;;;5.27;;
14900;SDS011;7542;49.078;9.194;2022-10-12T05:48:36;7.17;;;5.23;;
14900;SDS011;7542;49.078;9.194;2022-10-12T05:49:37;11.47;;;5.63;;
14900;SDS011;7542;49.078;9.194;2022-10-12T05:50:39;5.63;;;5.03;;
14900;SDS011;7542;49.078;9.194;2022-10-12T05:51:41;5.53;;;5.00;;
14900;SDS011;7542;49.078;9.194;2022-10-12T05:52:43;7.47;;;5.30;;
14900;SDS011;7542;49.078;9.194;2022-10-12T05:53:45;6.00;;;5.37;;
14900;SDS011;7542;49.078;9.194;2022-10-12T05:54:47;9.70;;;5.57;;
14900;SDS011;7542;49.078;9.194;2022-10-12T05:55:52;10.07;;;5.60;;
14900;SDS011;7542;49.078;9.194;2022-10-12T05:57:00;7.27;;;6.37;;
14900;SDS011;7542;49.078;9.194;2022-10-12T05:58:01;7.30;;;6.60;;
14900;SDS011;7542;49.078;9.194;2022-10-12T05:59:03;12.70;;;9.60;;
14900;SDS011;7542;49.078;9.194;2022-10-12T06:00:05;14.37;;;10.53;;
14900;SDS011;7542;49.078;9.194;2022-10-12T06:01:10;9.50;;;7.90;;
14900;SDS011;7542;49.078;9.194;2022-10-12T06:02:14;8.43;;;6.17;;
14900;SDS011;7542;49.078;9.194;2022-10-12T06:03:18;11.17;;;6.27;;
14900;SDS011;7542;49.078;9.194;2022-10-12T06:04:26;7.90;;;6.50;;
14900;SDS011;7542;49.078;9.194;2022-10-12T06:05:27;9.27;;;5.90;;
14900;SDS011;7542;49.078;9.194;2022-10-12T06:06:29;10.37;;;5.80;;
14900;SDS011;7542;49.078;9.194;2022-10-12T06:07:31;8.00;;;5.90;;
14900;SDS011;7542;49.078;9.194;2022-10-12T06:08:33;7.53;;;5.27;;
14900;SDS011;7542;49.078;9.194;2022-10-12T06:09:35;6.63;;;5.60;;
14900;SDS011;7542;49.078;9.194;2022-10-12T06:10:44;8.80;;;5.73;;
14900;SDS011;7542;49.078;9.194;2022-10-12T06:11:47;9.17;;;5.67;;
14900;SDS011;7542;49.078;9.194;2022-10-12T06:12:49;7.87;;;5.47;;
14900;SDS011;7542;49.078;9.194;2022-10-12T06:13:50;8.17;;;5.90;;
14900;SDS011;7542;49.078;9.194;2022-10-12T06:14:54;11.60;;;5.90;;
14900;SDS011;7542;49.078;9.194;2022-10-12T06:15:56;8.17;;;6.07;;
14900;SDS011;7542;49.078;9.194;2022-10-12T06:16:58;6.97;;;6.20;;
14900;SDS011;7542;49.078;9.194;2022-10-12T06:17:59;8.33;;;6.17;;
14900;SDS011;7542;49.078;9.194;2022-10-12T06:19:01;8.90;;;5.93;;
14900;SDS011;7542;49.078;9.194;2022-10-12T06:20:04;10.77;;;5.80;;
14900;SDS011;7542;49.078;9.194;2022-10-12T06:21:06;7.60;;;5.33;;
14900;SDS011;7542;49.078;9.194;2022-10-12T06:22:28;8.00;;;5.77;;
14900;SDS011;7542;49.078;9.194;2022-10-12T06:23:29;9.23;;;5.57;;
14900;SDS011;7542;49.078;9.194;2022-10-12T06:24:31;13.23;;;5.93;;
14900;SDS011;7542;49.078;9.194;2022-10-12T06:25:33;10.67;;;5.40;;
14900;SDS011;7542;49.078;9.194;2022-10-12T06:26:35;9.60;;;6.10;;
14900;SDS011;7542;49.078;9.194;2022-10-12T06:27:36;11.10;;;5.97;;
14900;SDS011;7542;49.078;9.194;2022-10-12T06:28:38;10.87;;;6.50;;
14900;SDS011;7542;49.078;9.194;2022-10-12T06:29:40;6.13;;;5.53;;
14900;SDS011;7542;49.078;9.194;2022-10-12T06:30:42;11.37;;;6.10;;
14900;SDS011;7542;49.078;9.194;2022-10-12T06:31:43;9.03;;;6.27;;
14900;SDS011;7542;49.078;9.194;2022-10-12T06:32:51;10.33;;;6.20;;
14900;SDS011;7542;49.078;9.194;2022-10-12T06:33:53;18.73;;;6.80;;
14900;SDS011;7542;49.078;9.194;2022-10-12T06:34:55;13.27;;;6.13;;
14900;SDS011;7542;49.078;9.194;2022-10-12T06:35:57;7.30;;;6.20;;
14900;SDS011;7542;49.078;9.194;2022-10-12T06:36:58;8.90;;;6.07;;
14900;SDS011;7542;49.078;9.194;2022-10-12T06:38:02;10.83;;;6.07;;
14900;SDS011;7542;49.078;9.194;2022-10-12T06:39:04;12.67;;;6.63;;
14900;SDS011;7542;49.078;9.194;2022-10-12T06:40:06;10.80;;;6.40;;
14900;SDS011;7542;49.078;9.194;2022-10-12T06:41:08;12.23;;;6.00;;
14900;SDS011;7542;49.078;9.194;2022-10-12T06:42:10;13.13;;;6.27;;
14900;SDS011;7542;49.078;9.194;2022-10-12T06:43:12;10.70;;;6.03;;
14900;SDS011;7542;49.078;9.194;2022-10-12T06:44:14;8.93;;;6.10;;
14900;SDS011;7542;49.078;9.194;2022-10-12T06:45:16;13.40;;;6.30;;
14900;SDS011;7542;49.078;9.194;2022-10-12T06:46:18;8.50;;;5.40;;
14900;SDS011;7542;49.078;9.194;2022-10-12T06:47:20;8.47;;;5.30;;
14900;SDS011;7542;49.078;9.194;2022-10-12T06:48:21;8.23;;;5.77;;
14900;SDS011;7542;49.078;9.194;2022-10-12T06:49:23;9.23;;;5.97;;
14900;SDS011;7542;49.078;9.194;2022-10-12T06:50:25;5.90;;;5.40;;
14900;SDS011;7542;49.078;9.194;2022-10-12T06:51:28;10.93;;;6.00;;
14900;SDS011;7542;49.078;9.194;2022-10-12T06:52:30;11.23;;;6.00;;
14900;SDS011;7542;49.078;9.194;2022-10-12T06:53:31;6.00;;;5.40;;
14900;SDS011;7542;49.078;9.194;2022-10-12T06:54:35;7.23;;;5.40;;
14900;SDS011;7542;49.078;9.194;2022-10-12T06:55:39;11.87;;;6.10;;
14900;SDS011;7542;49.078;9.194;2022-10-12T06:56:41;12.70;;;5.63;;
14900;SDS011;7542;49.078;9.194;2022-10-12T06:57:44;7.47;;;5.70;;
14900;SDS011;7542;49.078;9.194;2022-10-12T06:58:46;10.23;;;5.87;;
14900;SDS011;7542;49.078;9.194;2022-10-12T06:59:53;9.37;;;5.93;;
14900;SDS011;7542;49.078;9.194;2022-10-12T07:00:54;10.20;;;5.90;;
14900;SDS011;7542;49.078;9.194;2022-10-12T07:01:56;8.13;;;5.90;;
14900;SDS011;7542;49.078;9.194;2022-10-12T07:02:58;9.90;;;6.33;;
14900;SDS011;7542;49.078;9.194;2022-10-12T07:04:00;8.70;;;6.20;;